createdAt,value
2022-10-03T00:00:11.387Z,1.50
2022-10-03T00:03:46.766Z,2.20
2022-10-03T00:07:30.722Z,2.00
2022-10-03T00:11:07.246Z,2.17
2022-10-03T00:14:45.997Z,1.50
2022-10-03T00:18:31.454Z,3.03
2022-10-03T00:22:10.772Z,2.43
2022-10-03T00:25:47.406Z,1.93
2022-10-03T00:29:37.419Z,3.43
2022-10-03T00:33:20.362Z,2.00
2022-10-03T00:36:58.962Z,2.00
2022-10-03T00:41:17.179Z,1.70
2022-10-03T00:45:29.758Z,1.77
2022-10-03T00:49:46.430Z,2.47
2022-10-03T00:53:41.922Z,1.80
2022-10-03T00:57:28.924Z,3.00
2022-10-03T01:01:05.123Z,2.23
2022-10-03T01:04:56.664Z,2.27
2022-10-03T01:09:06.665Z,2.57
2022-10-03T01:13:13.947Z,2.47
2022-10-03T01:16:55.073Z,3.37
2022-10-03T01:20:31.567Z,3.67
2022-10-03T01:24:51.698Z,2.50
2022-10-03T01:29:05.799Z,1.87
2022-10-03T01:32:40.634Z,2.43
2022-10-03T01:36:19.382Z,3.17
2022-10-03T01:39:55.838Z,4.03
2022-10-03T01:43:25.846Z,2.23
2022-10-03T01:46:56.938Z,2.07
2022-10-03T01:50:31.526Z,2.80
2022-10-03T01:54:17.750Z,2.70
2022-10-03T01:57:49.996Z,2.53
2022-10-03T02:01:26.210Z,2.70
2022-10-03T02:05:04.330Z,4.83
2022-10-03T02:08:49.793Z,3.80
2022-10-03T02:12:28.373Z,2.90
2022-10-03T02:16:07.983Z,2.60
2022-10-03T02:19:47.163Z,3.70
2022-10-03T02:23:38.670Z,3.47
2022-10-03T02:27:58.780Z,3.73
2022-10-03T02:32:06.909Z,4.00
2022-10-03T02:36:32.015Z,3.53
2022-10-03T02:40:40.293Z,4.13
2022-10-03T02:44:58.279Z,3.63
2022-10-03T02:49:11.845Z,3.33
2022-10-03T02:53:32.828Z,4.87
2022-10-03T02:57:39.659Z,2.37
2022-10-03T03:01:47.207Z,5.17
2022-10-03T03:05:30.666Z,2.70
2022-10-03T03:09:31.968Z,2.47
2022-10-03T03:13:51.668Z,3.93
2022-10-03T03:17:36.050Z,2.57
2022-10-03T03:21:19.279Z,2.73
2022-10-03T03:25:20.319Z,2.70
2022-10-03T03:28:55.908Z,2.90
2022-10-03T03:32:40.245Z,2.80
2022-10-03T03:36:17.247Z,3.00
2022-10-03T03:40:12.775Z,3.67
2022-10-03T03:44:00.271Z,2.30
2022-10-03T03:47:49.747Z,2.13
2022-10-03T03:51:33.167Z,2.70
2022-10-03T03:55:34.220Z,2.20
2022-10-03T03:59:18.963Z,2.13
2022-10-03T04:03:12.026Z,3.83
2022-10-03T04:06:54.252Z,2.17
2022-10-03T04:10:38.285Z,2.17
2022-10-03T04:14:39.327Z,2.00
2022-10-03T04:18:51.027Z,1.87
2022-10-03T04:22:47.577Z,2.30
2022-10-03T04:26:37.819Z,2.00
2022-10-03T04:30:10.403Z,2.27
2022-10-03T04:33:56.104Z,1.93
2022-10-03T04:37:32.940Z,2.57
2022-10-03T04:41:12.357Z,2.40
2022-10-03T04:44:59.697Z,2.27
2022-10-03T04:48:38.886Z,4.60
2022-10-03T04:52:16.620Z,3.27
2022-10-03T04:55:50.080Z,2.20
2022-10-03T04:59:41.831Z,5.03
2022-10-03T05:03:16.331Z,4.03
2022-10-03T05:06:57.734Z,3.50
2022-10-03T05:10:41.352Z,2.83
2022-10-03T05:14:15.007Z,2.90
2022-10-03T05:17:53.356Z,3.67
2022-10-03T05:21:34.844Z,4.03
2022-10-03T05:25:15.618Z,3.43
2022-10-03T05:28:51.259Z,3.50
2022-10-03T05:32:28.756Z,7.10
2022-10-03T05:36:11.790Z,3.47
2022-10-03T05:39:54.628Z,3.70
2022-10-03T05:43:36.444Z,3.87
2022-10-03T05:47:29.876Z,3.93
2022-10-03T05:51:43.222Z,5.67
2022-10-03T05:55:37.547Z,5.93
2022-10-03T05:59:37.263Z,5.57
2022-10-03T06:03:48.275Z,5.50
2022-10-03T06:07:24.693Z,5.10
2022-10-03T06:11:03.756Z,7.23
2022-10-03T06:15:12.236Z,6.73
2022-10-03T06:19:08.279Z,7.07
2022-10-03T06:23:21.324Z,6.50
2022-10-03T06:27:56.807Z,6.30
2022-10-03T06:32:15.870Z,6.17
2022-10-03T06:36:22.666Z,7.30
2022-10-03T06:40:33.739Z,6.50
2022-10-03T06:44:24.779Z,8.57
2022-10-03T06:48:15.316Z,9.13
2022-10-03T06:52:22.800Z,5.47
2022-10-03T06:56:56.989Z,4.77
2022-10-03T07:00:23.287Z,6.17
2022-10-03T07:04:53.179Z,6.40
2022-10-03T07:09:12.625Z,4.30
2022-10-03T07:13:20.134Z,3.97
2022-10-03T07:17:15.758Z,4.50
2022-10-03T07:21:40.499Z,5.37
2022-10-03T07:25:56.697Z,4.40
2022-10-03T07:29:37.177Z,5.93
2022-10-03T07:33:46.128Z,5.87
2022-10-03T07:38:07.048Z,5.10
2022-10-03T07:42:26.802Z,5.33
2022-10-03T07:46:42.563Z,5.47
2022-10-03T07:50:37.746Z,4.73
2022-10-03T07:54:52.148Z,7.27
2022-10-03T07:58:46.004Z,4.90
2022-10-03T08:03:24.842Z,5.67
2022-10-03T08:07:08.633Z,5.33
2022-10-03T08:11:12.689Z,3.97
2022-10-03T08:14:53.001Z,6.13
2022-10-03T08:18:57.746Z,4.20
2022-10-03T08:22:45.638Z,6.23
2022-10-03T08:26:22.706Z,4.87
2022-10-03T08:30:19.840Z,4.47
2022-10-03T08:34:23.493Z,4.03
2022-10-03T08:38:26.015Z,5.70
2022-10-03T08:42:38.882Z,3.17
2022-10-03T08:46:46.936Z,3.07
2022-10-03T08:50:50.769Z,3.27
2022-10-03T08:54:50.850Z,5.23
2022-10-03T08:59:05.811Z,3.57
2022-10-03T09:03:42.741Z,2.73
2022-10-03T09:07:38.413Z,3.80
2022-10-03T09:12:10.576Z,3.27
2022-10-03T09:16:21.030Z,3.40
2022-10-03T09:20:17.350Z,4.13
2022-10-03T09:24:25.396Z,6.60
2022-10-03T09:28:50.663Z,5.23
2022-10-03T09:32:46.889Z,4.10
2022-10-03T09:37:07.384Z,4.70
2022-10-03T09:41:28.300Z,4.93
2022-10-03T09:45:27.803Z,4.67
2022-10-03T09:49:49.454Z,5.80
2022-10-03T09:54:16.723Z,4.13
2022-10-03T09:58:13.321Z,4.30
2022-10-03T10:01:48.324Z,4.20
2022-10-03T10:05:52.568Z,5.90
2022-10-03T10:10:06.597Z,4.83
2022-10-03T10:14:17.786Z,4.37
2022-10-03T10:18:25.707Z,3.30
2022-10-03T10:22:31.612Z,3.60
2022-10-03T10:26:47.854Z,4.00
2022-10-03T10:30:24.735Z,3.50
2022-10-03T10:34:56.610Z,3.73
2022-10-03T10:38:54.483Z,2.83
2022-10-03T10:43:11.613Z,3.60
2022-10-03T10:47:45.462Z,3.80
2022-10-03T10:52:11.769Z,2.77
2022-10-03T10:56:27.681Z,4.27
2022-10-03T11:00:18.662Z,3.60
2022-10-03T11:04:30.718Z,4.47
2022-10-03T11:08:51.820Z,3.73
2022-10-03T11:13:17.960Z,2.53
2022-10-03T11:17:34.679Z,3.50
2022-10-03T11:22:00.187Z,3.70
2022-10-03T11:26:25.954Z,3.60
2022-10-03T11:30:21.727Z,2.30
2022-10-03T11:34:43.523Z,3.00
2022-10-03T11:38:18.997Z,2.70
2022-10-03T11:41:53.140Z,3.67
2022-10-03T11:45:29.670Z,4.43
2022-10-03T11:49:01.106Z,3.50
2022-10-03T11:52:35.598Z,2.67
2022-10-03T11:56:31.896Z,3.13
2022-10-03T12:00:03.914Z,4.53
2022-10-03T12:03:50.899Z,2.23
2022-10-03T12:07:58.473Z,2.00
2022-10-03T12:11:29.079Z,3.70
2022-10-03T12:14:54.723Z,1.90
2022-10-03T12:18:29.901Z,3.70
2022-10-03T12:22:03.066Z,2.37
2022-10-03T12:25:30.983Z,2.33
2022-10-03T12:29:00.102Z,1.90
2022-10-03T12:32:38.226Z,2.30
2022-10-03T12:36:15.337Z,3.17
2022-10-03T12:39:53.742Z,1.73
2022-10-03T12:43:40.713Z,4.00
2022-10-03T12:47:51.111Z,1.90
2022-10-03T12:51:26.649Z,3.03
2022-10-03T12:55:04.344Z,1.70
2022-10-03T12:58:40.029Z,3.43
2022-10-03T13:06:33.906Z,1.83
2022-10-03T13:10:31.218Z,3.37
2022-10-03T13:14:28.253Z,1.90
2022-10-03T13:18:05.760Z,2.90
2022-10-03T13:21:53.204Z,2.10
2022-10-03T13:25:25.647Z,3.77
2022-10-03T13:29:13.216Z,2.70
2022-10-03T13:32:42.391Z,2.17
2022-10-03T13:36:19.322Z,2.00
2022-10-03T13:39:53.248Z,2.47
2022-10-03T13:43:26.989Z,3.90
2022-10-03T13:47:02.061Z,2.50
2022-10-03T13:50:33.333Z,2.50
2022-10-03T13:54:05.012Z,2.67
2022-10-03T13:57:36.799Z,2.47
2022-10-03T14:01:52.731Z,2.50
2022-10-03T14:05:51.201Z,1.70
2022-10-03T14:09:48.107Z,1.73
2022-10-03T14:13:28.400Z,1.97
2022-10-03T14:17:01.680Z,1.90
2022-10-03T14:20:33.050Z,2.40
2022-10-03T14:24:13.267Z,2.63
2022-10-03T14:27:48.640Z,3.17
2022-10-03T14:31:25.235Z,2.37
2022-10-03T14:35:02.299Z,2.30
2022-10-03T14:39:01.853Z,2.80
2022-10-03T14:43:00.095Z,1.73
2022-10-03T14:46:30.129Z,2.33
2022-10-03T14:49:59.694Z,1.90
2022-10-03T14:53:29.711Z,4.13
2022-10-03T14:56:56.554Z,2.90
2022-10-03T15:00:38.717Z,4.53
2022-10-03T15:04:07.781Z,2.37
2022-10-03T15:07:39.197Z,1.60
2022-10-03T15:11:06.353Z,4.30
2022-10-03T15:14:33.994Z,2.17
2022-10-03T15:18:03.022Z,2.67
2022-10-03T15:21:29.858Z,2.03
2022-10-03T15:24:58.589Z,2.17
2022-10-03T15:28:29.339Z,2.37
2022-10-03T15:31:58.033Z,1.93
2022-10-03T15:35:27.678Z,2.90
2022-10-03T15:39:00.385Z,1.70
2022-10-03T15:42:31.154Z,2.70
2022-10-03T15:45:57.531Z,1.90
2022-10-03T15:49:27.767Z,2.90
2022-10-03T15:53:08.045Z,3.30
2022-10-03T15:56:46.002Z,2.57
2022-10-03T16:00:21.903Z,1.73
2022-10-03T16:03:50.700Z,1.60
2022-10-03T16:07:29.779Z,3.03
2022-10-03T16:11:09.172Z,2.40
2022-10-03T16:14:42.794Z,2.27
2022-10-03T16:18:31.855Z,2.70
2022-10-03T16:22:24.800Z,2.37
2022-10-03T16:25:55.517Z,1.80
2022-10-03T16:29:26.714Z,2.30
2022-10-03T16:33:11.553Z,2.27
2022-10-03T16:36:45.680Z,1.97
2022-10-03T16:40:21.216Z,2.27
2022-10-03T16:43:59.524Z,1.87
2022-10-03T16:47:36.172Z,3.70
2022-10-03T16:51:02.794Z,1.90
2022-10-03T16:54:30.030Z,2.73
2022-10-03T16:57:58.410Z,3.03
2022-10-03T17:01:40.943Z,1.70
2022-10-03T17:05:11.823Z,3.47
2022-10-03T17:08:47.233Z,2.30
2022-10-03T17:12:20.117Z,1.80
2022-10-03T17:15:52.063Z,2.83
2022-10-03T17:19:28.581Z,2.20
2022-10-03T17:23:01.369Z,2.60
2022-10-03T17:26:33.221Z,1.87
2022-10-03T17:30:04.171Z,1.90
2022-10-03T17:33:41.427Z,2.43
2022-10-03T17:37:30.632Z,2.00
2022-10-03T17:41:20.750Z,1.70
2022-10-03T17:45:00.671Z,2.77
2022-10-03T17:48:34.602Z,2.40
2022-10-03T17:51:59.264Z,2.30
2022-10-03T17:55:30.645Z,7.10
2022-10-03T17:59:03.974Z,2.20
2022-10-03T18:02:43.507Z,3.20
2022-10-03T18:06:46.869Z,3.93
2022-10-03T18:10:25.811Z,2.60
2022-10-03T18:14:03.055Z,2.60
2022-10-03T18:17:37.297Z,2.10
2022-10-03T18:21:06.972Z,3.93
2022-10-03T18:24:52.725Z,3.27
2022-10-03T18:28:23.812Z,2.83
2022-10-03T18:31:57.239Z,2.13
2022-10-03T18:35:27.447Z,1.90
2022-10-03T18:38:57.543Z,2.33
2022-10-03T18:42:27.755Z,2.00
2022-10-03T18:45:58.124Z,2.93
2022-10-03T18:49:33.949Z,2.33
2022-10-03T18:53:09.471Z,2.00
2022-10-03T18:56:34.419Z,2.30
2022-10-03T19:00:07.629Z,2.47
2022-10-03T19:03:37.329Z,2.80
2022-10-03T19:07:10.726Z,2.60
2022-10-03T19:10:49.290Z,3.93
2022-10-03T19:14:18.814Z,2.73
2022-10-03T19:17:55.214Z,2.43
2022-10-03T19:21:22.565Z,2.00
2022-10-03T19:24:58.694Z,2.77
2022-10-03T19:28:32.087Z,1.97
2022-10-03T19:32:04.806Z,1.97
2022-10-03T19:35:31.249Z,1.87
2022-10-03T19:38:55.444Z,2.20
2022-10-03T19:42:38.732Z,2.37
2022-10-03T19:46:23.055Z,3.07
2022-10-03T19:49:59.441Z,2.30
2022-10-03T19:53:23.001Z,2.67
2022-10-03T19:56:46.692Z,3.13
2022-10-03T20:00:26.819Z,3.03
2022-10-03T20:03:57.902Z,2.30
2022-10-03T20:07:45.631Z,1.97
2022-10-03T20:11:37.882Z,3.30
2022-10-03T20:15:14.007Z,2.50
2022-10-03T20:18:37.873Z,2.20
2022-10-03T20:22:06.527Z,4.37
2022-10-03T20:25:37.563Z,2.70
2022-10-03T20:29:21.086Z,2.73
2022-10-03T20:32:47.190Z,2.10
2022-10-03T20:36:21.394Z,2.90
2022-10-03T20:39:48.409Z,2.30
2022-10-03T20:43:41.399Z,3.47
2022-10-03T20:47:17.750Z,3.37
2022-10-03T20:50:46.594Z,2.30
2022-10-03T20:54:20.579Z,2.03
2022-10-03T20:57:59.954Z,2.03
2022-10-03T21:01:26.814Z,6.07
2022-10-03T21:04:57.711Z,3.23
2022-10-03T21:08:26.105Z,3.50
2022-10-03T21:11:54.740Z,2.10
2022-10-03T21:15:36.487Z,2.57
2022-10-03T21:19:03.775Z,3.40
2022-10-03T21:22:31.451Z,3.20
2022-10-03T21:26:01.393Z,5.27
2022-10-03T21:29:31.221Z,3.60
2022-10-03T21:33:12.417Z,2.90
2022-10-03T21:36:49.344Z,3.00
2022-10-03T21:40:33.854Z,2.80
2022-10-03T21:44:01.611Z,3.27
2022-10-03T21:47:40.206Z,6.40
2022-10-03T21:51:26.641Z,3.50
2022-10-03T21:55:07.709Z,3.73
2022-10-03T21:59:06.038Z,3.47
2022-10-03T22:02:41.859Z,2.70
2022-10-03T22:06:20.068Z,3.07
2022-10-03T22:09:55.566Z,3.00
2022-10-03T22:13:26.201Z,3.40
2022-10-03T22:17:02.630Z,3.60
2022-10-03T22:20:30.129Z,2.73
2022-10-03T22:24:09.589Z,2.93
2022-10-03T22:27:42.836Z,3.03
2022-10-03T22:31:23.414Z,3.43
2022-10-03T22:35:03.072Z,2.80
2022-10-03T22:38:30.821Z,3.07
2022-10-03T22:42:01.165Z,4.00
2022-10-03T22:45:30.515Z,3.43
2022-10-03T22:49:03.159Z,2.63
2022-10-03T22:52:30.961Z,3.10
2022-10-03T22:55:59.535Z,4.03
2022-10-03T22:59:28.423Z,2.33
2022-10-03T23:02:59.866Z,3.60
2022-10-03T23:06:53.477Z,3.27
2022-10-03T23:10:32.739Z,3.13
2022-10-03T23:14:01.345Z,3.13
2022-10-03T23:17:51.554Z,3.50
2022-10-03T23:21:15.109Z,2.87
2022-10-03T23:24:45.370Z,2.83
2022-10-03T23:28:26.472Z,3.00
2022-10-03T23:31:54.625Z,2.60
2022-10-03T23:35:35.006Z,4.10
2022-10-03T23:39:01.552Z,4.23
2022-10-03T23:42:38.561Z,2.83
2022-10-03T23:46:06.300Z,2.80
2022-10-03T23:49:29.928Z,3.17
2022-10-03T23:52:58.509Z,3.20
2022-10-03T23:56:33.691Z,2.97
2022-10-03T23:59:57.395Z,3.67
